createdAt,value
2023-03-26T00:02:34.167Z,100231.88
2023-03-26T00:05:19.901Z,100227.25
2023-03-26T00:08:08.553Z,100228.59
2023-03-26T00:10:53.545Z,100238.66
2023-03-26T00:13:39.219Z,100233.56
2023-03-26T00:16:27.698Z,100239.16
2023-03-26T00:19:13.708Z,100232.88
2023-03-26T00:21:58.574Z,100236.66
2023-03-26T00:24:45.852Z,100227.56
2023-03-26T00:27:30.635Z,100230.19
2023-03-26T00:30:16.580Z,100235.66
2023-03-26T00:33:02.806Z,100224.38
2023-03-26T00:35:54.052Z,100225.22
2023-03-26T00:38:39.451Z,100225.91
2023-03-26T00:41:26.674Z,100217.13
2023-03-26T00:44:13.094Z,100215.44
2023-03-26T00:46:58.198Z,100211.28
2023-03-26T00:49:46.586Z,100210.34
2023-03-26T00:52:31.763Z,100214.59
2023-03-26T00:55:16.798Z,100211.63
2023-03-26T00:58:01.668Z,100203.66
2023-03-26T01:00:57.202Z,100199.19
2023-03-26T01:03:56.775Z,100197.34
2023-03-26T01:06:46.711Z,100189.38
2023-03-26T01:09:42.587Z,100184.88
2023-03-26T01:12:31.984Z,100179.25
2023-03-26T01:15:17.056Z,100176.28
2023-03-26T01:18:04.768Z,100177.22
2023-03-26T01:20:51.061Z,100168.53
2023-03-26T01:23:50.985Z,100167.41
2023-03-26T01:26:47.605Z,100171.00
2023-03-26T01:29:54.421Z,100169.34
2023-03-26T01:32:53.353Z,100169.03
2023-03-26T01:35:48.341Z,100157.50
2023-03-26T01:38:54.814Z,100150.56
2023-03-26T01:41:46.616Z,100148.19
2023-03-26T01:44:57.885Z,100145.72
2023-03-26T01:47:44.037Z,100140.63
2023-03-26T01:50:28.988Z,100137.03
2023-03-26T01:53:14.576Z,100133.38
2023-03-26T01:56:26.377Z,100130.56
2023-03-26T01:59:30.489Z,100126.94
2023-03-26T02:02:30.545Z,100124.97
2023-03-26T02:05:23.918Z,100116.22
2023-03-26T02:08:20.976Z,100115.56
2023-03-26T02:11:11.750Z,100109.47
2023-03-26T02:13:58.138Z,100111.44
2023-03-26T02:16:46.649Z,100098.06
2023-03-26T02:19:31.845Z,100087.34
2023-03-26T02:22:17.402Z,100082.53
2023-03-26T02:25:02.097Z,100080.72
2023-03-26T02:27:49.174Z,100074.47
2023-03-26T02:30:33.847Z,100069.16
2023-03-26T02:33:19.039Z,100062.22
2023-03-26T02:36:04.425Z,100060.22
2023-03-26T02:38:50.856Z,100060.22
2023-03-26T02:41:35.761Z,100057.13
2023-03-26T02:44:20.575Z,100050.81
2023-03-26T02:47:06.049Z,100047.19
2023-03-26T02:49:51.196Z,100049.03
2023-03-26T02:52:36.390Z,100051.66
2023-03-26T02:55:21.378Z,100042.25
2023-03-26T02:58:06.178Z,100036.00
2023-03-26T03:00:55.078Z,100030.03
2023-03-26T03:03:40.529Z,100031.50
2023-03-26T03:06:26.350Z,100030.19
2023-03-26T03:09:11.966Z,100025.56
2023-03-26T03:11:57.085Z,100022.09
2023-03-26T03:14:42.225Z,100019.66
2023-03-26T03:17:26.895Z,100010.22
2023-03-26T03:20:13.288Z,100004.63
2023-03-26T03:22:58.545Z,100006.44
2023-03-26T03:25:43.409Z,100000.31
2023-03-26T03:28:28.186Z,99997.03
2023-03-26T03:31:13.405Z,100000.50
2023-03-26T03:33:58.732Z,99989.09
2023-03-26T03:36:48.219Z,99988.94
2023-03-26T03:39:33.166Z,99984.78
2023-03-26T03:42:18.348Z,99976.22
2023-03-26T03:45:06.240Z,99973.56
2023-03-26T03:47:51.336Z,99973.25
2023-03-26T03:50:36.212Z,99974.91
2023-03-26T03:53:22.088Z,99960.91
2023-03-26T03:56:09.995Z,99956.78
2023-03-26T03:58:55.432Z,99954.78
2023-03-26T04:01:43.026Z,99945.06
2023-03-26T04:04:27.800Z,99946.69
2023-03-26T04:07:13.871Z,99943.06
2023-03-26T04:10:01.831Z,99950.47
2023-03-26T04:12:46.734Z,99943.69
2023-03-26T04:15:31.498Z,99938.25
2023-03-26T04:18:16.463Z,99935.13
2023-03-26T04:21:03.165Z,99925.22
2023-03-26T04:23:47.978Z,99934.13
2023-03-26T04:26:32.894Z,99922.41
2023-03-26T04:29:21.877Z,99917.50
2023-03-26T04:32:12.549Z,99907.59
2023-03-26T04:35:00.459Z,99908.41
2023-03-26T04:37:46.070Z,99909.41
2023-03-26T04:40:34.647Z,99898.50
2023-03-26T04:43:19.612Z,99901.16
2023-03-26T04:46:04.686Z,99894.72
2023-03-26T04:48:51.352Z,99889.44
2023-03-26T04:51:38.847Z,99889.75
2023-03-26T04:54:24.455Z,99878.38
2023-03-26T04:57:23.370Z,99873.28
2023-03-26T05:00:16.423Z,99869.81
2023-03-26T05:03:01.545Z,99866.84
2023-03-26T05:05:46.695Z,99861.25
2023-03-26T05:08:31.603Z,99858.94
2023-03-26T05:11:16.723Z,99863.69
2023-03-26T05:14:01.478Z,99862.22
2023-03-26T05:16:48.778Z,99868.16
2023-03-26T05:19:33.662Z,99876.91
2023-03-26T05:22:18.971Z,99865.16
2023-03-26T05:25:04.872Z,99861.91
2023-03-26T05:27:49.622Z,99860.41
2023-03-26T05:30:34.445Z,99860.91
2023-03-26T05:33:20.992Z,99865.53
2023-03-26T05:36:09.634Z,99863.72
2023-03-26T05:38:56.364Z,99874.91
2023-03-26T05:41:41.350Z,99870.47
2023-03-26T05:44:26.321Z,99860.22
2023-03-26T05:47:11.412Z,99859.06
2023-03-26T05:49:56.301Z,99864.34
2023-03-26T05:52:41.604Z,99854.97
2023-03-26T05:55:27.612Z,99861.91
2023-03-26T05:58:13.645Z,99846.06
2023-03-26T06:01:05.402Z,99834.69
2023-03-26T06:03:51.408Z,99827.75
2023-03-26T06:06:36.485Z,99824.16
2023-03-26T06:09:21.716Z,99826.94
2023-03-26T06:12:08.240Z,99823.66
2023-03-26T06:14:53.086Z,99830.75
2023-03-26T06:17:38.034Z,99825.81
2023-03-26T06:20:23.097Z,99827.63
2023-03-26T06:23:08.347Z,99817.91
2023-03-26T06:25:53.086Z,99813.91
2023-03-26T06:28:38.208Z,99816.03
2023-03-26T06:31:22.916Z,99809.47
2023-03-26T06:34:08.111Z,99809.28
2023-03-26T06:36:53.043Z,99797.44
2023-03-26T06:39:38.129Z,99795.28
2023-03-26T06:43:07.052Z,99790.00
2023-03-26T06:45:29.377Z,99806.66
2023-03-26T06:48:14.188Z,99802.22
2023-03-26T06:50:59.102Z,99810.78
2023-03-26T06:53:44.032Z,99813.09
2023-03-26T06:56:28.952Z,99819.00
2023-03-26T06:59:13.940Z,99807.34
2023-03-26T07:01:58.835Z,99805.03
2023-03-26T07:04:43.862Z,99792.50
2023-03-26T07:07:28.739Z,99792.81
2023-03-26T07:10:14.588Z,99789.34
2023-03-26T07:12:59.484Z,99788.19
2023-03-26T07:15:44.610Z,99781.78
2023-03-26T07:18:29.374Z,99783.94
2023-03-26T07:21:15.287Z,99773.53
2023-03-26T07:24:00.183Z,99772.38
2023-03-26T07:26:44.850Z,99763.81
2023-03-26T07:29:39.454Z,99758.38
2023-03-26T07:32:30.441Z,99757.72
2023-03-26T07:35:23.791Z,99760.03
2023-03-26T07:38:46.417Z,99759.06
2023-03-26T07:41:46.616Z,99745.69
2023-03-26T07:44:48.501Z,99744.03
2023-03-26T07:47:34.734Z,99741.75
2023-03-26T07:50:22.757Z,99734.69
2023-03-26T07:53:07.743Z,99738.94
2023-03-26T07:56:10.989Z,99731.69
2023-03-26T07:59:11.476Z,99719.84
2023-03-26T08:02:15.425Z,99714.56
2023-03-26T08:05:10.345Z,99721.81
2023-03-26T08:08:25.467Z,99720.16
2023-03-26T08:11:24.366Z,99721.97
2023-03-26T08:14:22.562Z,99720.00
2023-03-26T08:17:23.561Z,99714.72
2023-03-26T08:20:34.170Z,99720.66
2023-03-26T08:23:33.501Z,99716.72
2023-03-26T08:26:45.315Z,99714.56
2023-03-26T08:29:49.795Z,99713.25
2023-03-26T08:32:34.996Z,99706.31
2023-03-26T08:35:19.957Z,99709.63
2023-03-26T08:38:05.461Z,99705.84
2023-03-26T08:41:09.387Z,99711.63
2023-03-26T08:44:47.463Z,99707.81
2023-03-26T08:48:09.818Z,99695.81
2023-03-26T08:51:03.969Z,99687.91
2023-03-26T08:54:13.624Z,99689.53
2023-03-26T08:57:20.751Z,99676.53
2023-03-26T09:00:30.576Z,99679.28
2023-03-26T09:03:37.344Z,99674.03
2023-03-26T09:06:43.903Z,99671.41
2023-03-26T09:10:02.892Z,99666.00
2023-03-26T09:13:14.641Z,99651.00
2023-03-26T09:16:42.753Z,99645.22
2023-03-26T09:20:02.636Z,99635.00
2023-03-26T09:23:06.582Z,99622.50
2023-03-26T09:26:03.384Z,99615.28
2023-03-26T09:29:24.748Z,99608.00
2023-03-26T09:32:31.884Z,99590.06
2023-03-26T09:35:38.371Z,99581.63
2023-03-26T09:38:45.960Z,99584.09
2023-03-26T09:41:59.334Z,99588.88
2023-03-26T09:45:22.436Z,99588.53
2023-03-26T09:48:30.733Z,99584.13
2023-03-26T09:51:49.777Z,99575.69
2023-03-26T09:55:08.134Z,99566.28
2023-03-26T09:58:14.356Z,99560.56
2023-03-26T10:01:12.394Z,99546.63
2023-03-26T10:04:10.406Z,99519.31
2023-03-26T10:07:29.984Z,99506.03
2023-03-26T10:10:31.497Z,99508.94
2023-03-26T10:13:30.532Z,99516.19
2023-03-26T10:16:51.263Z,99519.41
2023-03-26T10:19:50.138Z,99522.97
2023-03-26T10:22:47.372Z,99515.16
2023-03-26T10:25:56.180Z,99513.44
2023-03-26T10:29:08.247Z,99526.63
2023-03-26T10:32:05.217Z,99523.09
2023-03-26T10:35:06.720Z,99515.47
2023-03-26T10:38:03.606Z,99508.03
2023-03-26T10:40:59.621Z,99511.41
2023-03-26T10:44:08.698Z,99496.81
2023-03-26T10:47:18.483Z,99497.53
2023-03-26T10:50:23.772Z,99492.09
2023-03-26T10:53:26.813Z,99490.09
2023-03-26T10:56:23.922Z,99488.44
2023-03-26T10:59:14.197Z,99476.31
2023-03-26T11:02:20.957Z,99474.88
2023-03-26T11:05:39.862Z,99471.47
2023-03-26T11:08:46.746Z,99474.78
2023-03-26T11:11:41.865Z,99461.75
2023-03-26T11:14:48.028Z,99460.38
2023-03-26T11:17:56.971Z,99470.13
2023-03-26T11:20:50.853Z,99467.50
2023-03-26T11:23:39.547Z,99464.66
2023-03-26T11:26:49.211Z,99466.66
2023-03-26T11:29:56.540Z,99466.81
2023-03-26T11:32:45.871Z,99474.03
2023-03-26T11:35:40.265Z,99465.00
2023-03-26T11:38:29.037Z,99466.75
2023-03-26T11:41:22.519Z,99463.38
2023-03-26T11:44:29.171Z,99459.47
2023-03-26T11:47:20.539Z,99467.50
2023-03-26T11:50:10.599Z,99469.47
2023-03-26T11:53:12.300Z,99433.69
2023-03-26T11:56:20.003Z,99438.75
2023-03-26T11:59:14.638Z,99431.34
2023-03-26T12:02:05.922Z,99439.56
2023-03-26T12:04:55.114Z,99430.59
2023-03-26T12:07:52.225Z,99441.53
2023-03-26T12:10:39.180Z,99433.94
2023-03-26T12:13:28.714Z,99430.53
2023-03-26T12:16:17.603Z,99432.94
2023-03-26T12:19:18.520Z,99435.03
2023-03-26T12:22:03.774Z,99425.91
2023-03-26T12:25:01.158Z,99432.91
2023-03-26T12:27:52.741Z,99434.25
2023-03-26T12:30:39.506Z,99440.31
2023-03-26T12:33:27.908Z,99431.19
2023-03-26T12:36:20.553Z,99437.47
2023-03-26T12:40:09.731Z,99431.09
2023-03-26T12:44:48.305Z,99445.91
2023-03-26T12:45:42.906Z,99437.00
2023-03-26T12:48:29.328Z,99445.50
2023-03-26T12:51:30.012Z,99446.38
2023-03-26T12:54:23.762Z,99442.00
2023-03-26T12:57:24.424Z,99445.38
2023-03-26T13:00:25.451Z,99445.31
2023-03-26T13:03:30.788Z,99450.91
2023-03-26T13:06:27.579Z,99450.75
2023-03-26T13:09:34.012Z,99451.78
2023-03-26T13:12:47.080Z,99459.41
2023-03-26T13:15:36.838Z,99465.59
2023-03-26T13:18:47.953Z,99453.50
2023-03-26T13:22:02.566Z,99452.75
2023-03-26T13:24:55.712Z,99460.06
2023-03-26T13:28:01.888Z,99461.63
2023-03-26T13:31:24.369Z,99465.53
2023-03-26T13:34:29.846Z,99469.19
2023-03-26T13:37:32.806Z,99466.72
2023-03-26T13:40:33.544Z,99469.97
2023-03-26T13:43:36.644Z,99471.03
2023-03-26T13:46:44.921Z,99474.53
2023-03-26T13:49:37.340Z,99472.38
2023-03-26T13:52:40.124Z,99460.84
2023-03-26T13:55:40.571Z,99466.25
2023-03-26T13:58:41.628Z,99468.44
2023-03-26T14:01:43.227Z,99464.84
2023-03-26T14:04:40.357Z,99471.03
2023-03-26T14:07:43.006Z,99479.19
2023-03-26T14:10:33.966Z,99482.00
2023-03-26T14:13:31.059Z,99496.22
2023-03-26T14:16:26.447Z,99508.13
2023-03-26T14:19:47.088Z,99519.06
2023-03-26T14:22:55.327Z,99522.91
2023-03-26T14:25:59.214Z,99531.13
2023-03-26T14:29:02.777Z,99526.66
2023-03-26T14:32:15.441Z,99538.91
2023-03-26T14:35:31.416Z,99524.84
2023-03-26T14:38:54.169Z,99520.72
2023-03-26T14:41:51.729Z,99521.63
2023-03-26T14:44:56.203Z,99528.56
2023-03-26T14:48:05.058Z,99537.09
2023-03-26T14:51:22.908Z,99539.19
2023-03-26T14:54:16.150Z,99533.09
2023-03-26T14:57:13.604Z,99526.47
2023-03-26T15:00:34.635Z,99532.22
2023-03-26T15:03:43.464Z,99535.69
2023-03-26T15:06:50.106Z,99540.13
2023-03-26T15:09:53.250Z,99547.38
2023-03-26T15:13:06.090Z,99544.59
2023-03-26T15:16:34.428Z,99557.19
2023-03-26T15:19:53.345Z,99555.34
2023-03-26T15:22:53.939Z,99551.44
2023-03-26T15:26:21.822Z,99564.53
2023-03-26T15:29:23.061Z,99568.31
2023-03-26T15:32:31.695Z,99566.38
2023-03-26T15:35:50.017Z,99566.84
2023-03-26T15:39:14.683Z,99565.91
2023-03-26T15:42:09.257Z,99580.97
2023-03-26T15:45:06.518Z,99588.19
2023-03-26T15:48:11.584Z,99594.03
2023-03-26T15:51:15.599Z,99591.53
2023-03-26T15:54:19.253Z,99592.16
2023-03-26T15:57:25.775Z,99600.22
2023-03-26T16:00:22.547Z,99603.50
2023-03-26T16:03:11.666Z,99608.78
2023-03-26T16:06:27.995Z,99614.31
2023-03-26T16:09:33.823Z,99619.50
2023-03-26T16:12:32.808Z,99624.09
2023-03-26T16:15:32.296Z,99633.25
2023-03-26T16:18:30.123Z,99645.06
2023-03-26T16:21:36.987Z,99652.78
2023-03-26T16:24:28.975Z,99664.00
2023-03-26T16:27:13.642Z,99671.19
2023-03-26T16:30:06.876Z,99686.69
2023-03-26T16:32:55.942Z,99693.72
2023-03-26T16:36:02.551Z,99699.00
2023-03-26T16:38:55.085Z,99700.16
2023-03-26T16:41:40.161Z,99715.22
2023-03-26T16:44:37.916Z,99715.53
2023-03-26T16:47:38.551Z,99721.78
2023-03-26T16:50:46.045Z,99728.22
2023-03-26T16:53:58.156Z,99737.16
2023-03-26T16:56:50.717Z,99738.47
2023-03-26T17:00:04.946Z,99737.00
2023-03-26T17:03:12.826Z,99753.00
2023-03-26T17:06:19.686Z,99753.19
2023-03-26T17:09:41.435Z,99760.25
2023-03-26T17:13:08.217Z,99779.25
2023-03-26T17:16:23.087Z,99786.00
2023-03-26T17:19:33.073Z,99789.19
2023-03-26T17:22:34.533Z,99794.25
2023-03-26T17:25:36.144Z,99807.97
2023-03-26T17:28:32.116Z,99823.63
2023-03-26T17:31:40.974Z,99830.25
2023-03-26T17:34:38.174Z,99844.59
2023-03-26T17:37:26.322Z,99845.56
2023-03-26T17:40:42.428Z,99855.63
2023-03-26T17:43:42.943Z,99866.16
2023-03-26T17:46:37.903Z,99866.53
2023-03-26T17:49:30.480Z,99873.59
2023-03-26T17:52:21.250Z,99882.16
2023-03-26T17:55:10.265Z,99888.41
2023-03-26T17:58:06.625Z,99900.63
2023-03-26T18:01:01.578Z,99910.84
2023-03-26T18:03:54.302Z,99923.38
2023-03-26T18:07:11.822Z,99932.59
2023-03-26T18:10:32.917Z,99940.00
2023-03-26T18:14:00.114Z,99943.63
2023-03-26T18:16:52.356Z,99952.50
2023-03-26T18:19:52.519Z,99950.34
2023-03-26T18:22:38.305Z,99964.16
2023-03-26T18:25:33.639Z,99973.75
2023-03-26T18:28:18.557Z,99986.16
2023-03-26T18:31:14.307Z,99989.19
2023-03-26T18:34:12.528Z,99998.22
2023-03-26T18:37:31.619Z,100004.97
2023-03-26T18:40:20.076Z,100009.13
2023-03-26T18:43:05.794Z,100005.72
2023-03-26T18:45:53.685Z,100021.22
2023-03-26T18:48:42.182Z,100022.09
2023-03-26T18:51:27.531Z,100024.06
2023-03-26T18:54:18.343Z,100027.34
2023-03-26T18:57:21.776Z,100035.06
2023-03-26T19:00:22.934Z,100025.34
2023-03-26T19:03:08.381Z,100039.09
2023-03-26T19:05:59.191Z,100042.97
2023-03-26T19:08:45.394Z,100050.06
2023-03-26T19:11:32.461Z,100045.72
2023-03-26T19:14:20.067Z,100064.22
2023-03-26T19:17:06.669Z,100063.25
2023-03-26T19:19:52.179Z,100074.28
2023-03-26T19:22:44.776Z,100079.72
2023-03-26T19:25:38.728Z,100084.69
2023-03-26T19:28:49.173Z,100090.44
2023-03-26T19:31:38.632Z,100095.72
2023-03-26T19:34:41.922Z,100103.69
2023-03-26T19:37:32.214Z,100114.09
2023-03-26T19:40:22.258Z,100106.25
2023-03-26T19:43:11.790Z,100109.03
2023-03-26T19:45:59.624Z,100102.19
2023-03-26T19:48:48.979Z,100113.50
2023-03-26T19:51:38.527Z,100105.00
2023-03-26T19:54:34.454Z,100124.88
2023-03-26T19:57:19.914Z,100123.97
2023-03-26T20:00:13.514Z,100122.69
2023-03-26T20:02:59.008Z,100130.81
2023-03-26T20:05:46.269Z,100141.88
2023-03-26T20:08:31.296Z,100135.94
2023-03-26T20:11:20.922Z,100134.25
2023-03-26T20:14:15.705Z,100133.47
2023-03-26T20:17:00.609Z,100130.13
2023-03-26T20:19:46.795Z,100135.78
2023-03-26T20:22:32.579Z,100142.31
2023-03-26T20:25:20.580Z,100157.22
2023-03-26T20:28:07.803Z,100160.28
2023-03-26T20:30:54.182Z,100156.16
2023-03-26T20:33:39.634Z,100168.34
2023-03-26T20:36:33.346Z,100169.84
2023-03-26T20:39:19.273Z,100178.13
2023-03-26T20:42:07.044Z,100185.41
2023-03-26T20:44:52.142Z,100193.25
2023-03-26T20:47:38.511Z,100198.00
2023-03-26T20:50:27.268Z,100201.66
2023-03-26T20:53:14.828Z,100206.19
2023-03-26T20:55:59.997Z,100204.50
2023-03-26T20:58:50.570Z,100205.88
2023-03-26T21:01:40.537Z,100208.13
2023-03-26T21:04:26.239Z,100218.41
2023-03-26T21:07:18.322Z,100223.00
2023-03-26T21:10:06.575Z,100234.69
2023-03-26T21:13:23.658Z,100238.69
2023-03-26T21:16:09.987Z,100250.63
2023-03-26T21:18:55.552Z,100258.75
2023-03-26T21:21:48.534Z,100258.63
2023-03-26T21:24:50.504Z,100266.53
2023-03-26T21:27:51.525Z,100273.72
2023-03-26T21:30:38.911Z,100276.94
2023-03-26T21:33:24.074Z,100285.19
2023-03-26T21:36:13.158Z,100291.78
2023-03-26T21:39:03.092Z,100297.72
2023-03-26T21:42:05.436Z,100298.84
2023-03-26T21:44:52.252Z,100304.94
2023-03-26T21:47:37.726Z,100318.22
2023-03-26T21:50:23.370Z,100313.78
2023-03-26T21:53:13.059Z,100318.66
2023-03-26T21:56:07.447Z,100329.09
2023-03-26T21:59:19.255Z,100342.94
2023-03-26T22:02:08.358Z,100345.28
2023-03-26T22:05:00.032Z,100357.47
2023-03-26T22:07:58.531Z,100358.72
2023-03-26T22:10:43.643Z,100367.94
2023-03-26T22:13:30.698Z,100373.09
2023-03-26T22:16:18.709Z,100375.31
2023-03-26T22:19:03.481Z,100391.38
2023-03-26T22:21:48.241Z,100392.50
2023-03-26T22:24:34.215Z,100398.56
2023-03-26T22:27:19.156Z,100414.72
2023-03-26T22:30:05.742Z,100423.03
2023-03-26T22:32:52.509Z,100426.06
2023-03-26T22:35:40.955Z,100435.59
2023-03-26T22:38:26.006Z,100437.00
2023-03-26T22:41:15.995Z,100447.91
2023-03-26T22:44:16.918Z,100452.47
2023-03-26T22:47:04.606Z,100461.31
2023-03-26T22:49:49.396Z,100460.19
2023-03-26T22:52:36.447Z,100482.19
2023-03-26T22:55:28.956Z,100485.50
2023-03-26T22:58:14.304Z,100499.28
2023-03-26T23:01:10.741Z,100503.88
2023-03-26T23:03:56.173Z,100513.94
2023-03-26T23:06:40.924Z,100521.25
2023-03-26T23:09:29.303Z,100515.56
2023-03-26T23:12:18.020Z,100539.28
2023-03-26T23:15:05.159Z,100546.38
2023-03-26T23:17:54.905Z,100538.00
2023-03-26T23:20:42.659Z,100544.84
2023-03-26T23:23:30.790Z,100566.88
2023-03-26T23:26:16.238Z,100571.66
2023-03-26T23:29:02.367Z,100580.09
2023-03-26T23:31:47.534Z,100575.00
2023-03-26T23:34:33.941Z,100590.94
2023-03-26T23:37:22.827Z,100598.19
2023-03-26T23:40:10.265Z,100604.97
2023-03-26T23:42:55.651Z,100618.03
2023-03-26T23:45:42.688Z,100625.09
2023-03-26T23:48:29.507Z,100638.44
2023-03-26T23:51:16.611Z,100632.56
2023-03-26T23:54:02.265Z,100632.91
2023-03-26T23:56:48.881Z,100653.25
2023-03-26T23:59:35.388Z,100664.94
